Time;durP1;ratioP1;P1;durP2;ratioP2;P2;SDS_P1;SDS_P2;PMS_P1;PMS_P2;Temp;Humidity;BMP_temperature;BMP_pressure;BME280_temperature;BME280_humidity;BME280_pressure;Samples;Min_cycle;Max_cycle;Signal;HPM_P1;HPM_P2
2021/01/03 00:01:55;;;;;;;18.23;9.20;;;;;;;;;;10459166;27;20067;-62
2021/01/03 00:06:53;;;;;;;23.10;9.65;;;;;;;;;;10460129;27;20042;-64
2021/01/03 00:11:52;;;;;;;15.90;9.20;;;;;;;;;;10460710;27;20073;-64
2021/01/03 00:16:52;;;;;;;19.15;10.10;;;;;;;;;;10459073;27;20077;-64
2021/01/03 00:21:49;;;;;;;19.67;8.45;;;;;;;;;;10472449;27;20046;-64
2021/01/03 00:26:47;;;;;;;15.20;8.90;;;;;;;;;;10473387;27;20066;-63
2021/01/03 00:31:46;;;;;;;16.05;8.60;;;;;;;;;;10470541;27;20097;-63
2021/01/03 00:36:43;;;;;;;10.52;7.25;;;;;;;;;;10473943;27;20467;-63
2021/01/03 00:41:41;;;;;;;13.15;7.03;;;;;;;;;;10474976;27;20039;-63
2021/01/03 00:46:38;;;;;;;16.65;8.10;;;;;;;;;;10473355;27;20051;-63
2021/01/03 00:51:36;;;;;;;12.10;6.57;;;;;;;;;;10473814;27;20047;-63
2021/01/03 00:56:33;;;;;;;16.85;7.25;;;;;;;;;;10473122;27;20082;-64
2021/01/03 01:01:31;;;;;;;19.88;8.10;;;;;;;;;;10470797;27;20074;-63
2021/01/03 01:06:28;;;;;;;12.88;7.43;;;;;;;;;;10474784;27;20507;-63
2021/01/03 01:11:28;;;;;;;15.55;6.65;;;;;;;;;;10471918;27;20043;-62
2021/01/03 01:16:26;;;;;;;14.10;6.47;;;;;;;;;;10469281;27;20085;-63
2021/01/03 01:21:23;;;;;;;17.58;7.90;;;;;;;;;;10474222;27;20097;-63
2021/01/03 01:26:21;;;;;;;15.02;7.43;;;;;;;;;;10471594;27;20530;-62
2021/01/03 01:31:21;;;;;;;13.52;7.25;;;;;;;;;;10469351;27;20069;-63
2021/01/03 01:36:18;;;;;;;12.10;7.40;;;;;;;;;;10466198;27;20120;-63
2021/01/03 01:41:15;;;;;;;10.80;7.00;;;;;;;;;;10471444;27;20088;-62
2021/01/03 01:46:17;;;;;;;16.77;7.78;;;;;;;;;;10487070;27;20050;-62
2021/01/03 01:51:19;;;;;;;14.70;8.05;;;;;;;;;;10487219;27;20046;-63
2021/01/03 01:56:21;;;;;;;17.30;7.82;;;;;;;;;;10486516;27;20074;-62
2021/01/03 02:01:21;;;;;;;10.70;6.65;;;;;;;;;;10486102;27;20089;-62
2021/01/03 02:06:22;;;;;;;13.77;6.82;;;;;;;;;;10486500;27;20051;-62
2021/01/03 02:11:24;;;;;;;10.88;6.05;;;;;;;;;;10487015;27;20066;-62
2021/01/03 02:16:22;;;;;;;12.75;6.32;;;;;;;;;;10485355;27;20085;-62
2021/01/03 02:21:24;;;;;;;11.20;6.25;;;;;;;;;;10486013;27;20440;-62
2021/01/03 02:26:23;;;;;;;13.27;6.50;;;;;;;;;;10485425;27;20534;-62
2021/01/03 02:31:24;;;;;;;14.55;6.88;;;;;;;;;;10484339;27;20047;-62
2021/01/03 02:36:25;;;;;;;17.48;6.97;;;;;;;;;;10482858;27;20078;-62
2021/01/03 02:41:23;;;;;;;12.77;6.43;;;;;;;;;;10484855;27;20051;-62
2021/01/03 02:46:21;;;;;;;15.32;9.07;;;;;;;;;;10484529;27;20066;-63
2021/01/03 02:51:18;;;;;;;13.07;7.05;;;;;;;;;;10484552;27;20058;-63
2021/01/03 02:56:15;;;;;;;14.30;8.45;;;;;;;;;;10485014;27;20034;-63
2021/01/03 03:01:14;;;;;;;11.35;6.72;;;;;;;;;;10484307;27;20043;-63
2021/01/03 03:06:11;;;;;;;10.98;6.80;;;;;;;;;;10484911;27;20479;-63
2021/01/03 03:11:08;;;;;;;17.75;6.28;;;;;;;;;;10483907;27;20432;-62
2021/01/03 03:16:06;;;;;;;10.30;6.03;;;;;;;;;;10482956;27;20063;-63
2021/01/03 03:21:04;;;;;;;16.85;6.82;;;;;;;;;;10484002;27;20046;-63
2021/01/03 03:26:01;;;;;;;10.73;6.97;;;;;;;;;;10480321;27;20073;-63
2021/01/03 03:30:58;;;;;;;15.68;7.15;;;;;;;;;;10482767;27;20050;-63
2021/01/03 03:35:56;;;;;;;23.15;7.15;;;;;;;;;;10482551;27;20047;-63
2021/01/03 03:40:55;;;;;;;18.17;7.35;;;;;;;;;;10482367;27;20070;-62
2021/01/03 03:45:52;;;;;;;16.00;7.93;;;;;;;;;;10482715;27;20084;-62
2021/01/03 03:50:49;;;;;;;14.95;6.07;;;;;;;;;;10463707;27;20435;-63
2021/01/03 03:55:47;;;;;;;10.80;5.93;;;;;;;;;;10482627;27;20031;-63
2021/01/03 04:00:45;;;;;;;16.35;6.35;;;;;;;;;;10478621;27;20081;-63
2021/01/03 04:05:45;;;;;;;13.52;6.10;;;;;;;;;;10482623;27;20069;-63
2021/01/03 04:10:42;;;;;;;9.05;6.45;;;;;;;;;;10482510;27;20447;-62
2021/01/03 04:15:40;;;;;;;7.97;5.40;;;;;;;;;;10482804;27;20031;-63
2021/01/03 04:20:38;;;;;;;12.43;5.95;;;;;;;;;;10482535;27;20073;-63
2021/01/03 04:25:36;;;;;;;15.80;6.85;;;;;;;;;;10481984;27;20059;-63
2021/01/03 04:30:33;;;;;;;12.70;5.80;;;;;;;;;;10481184;27;20042;-63
2021/01/03 04:35:31;;;;;;;11.73;5.65;;;;;;;;;;10481224;27;20050;-63
2021/01/03 04:40:31;;;;;;;13.35;5.57;;;;;;;;;;10481546;27;20067;-63
2021/01/03 04:45:30;;;;;;;11.30;5.80;;;;;;;;;;10460077;27;21182;-63
2021/01/03 04:50:39;;;;;;;12.80;6.07;;;;;;;;;;10456728;27;20046;-62
2021/01/03 04:55:42;;;;;;;14.10;7.25;;;;;;;;;;10459525;27;20043;-62
2021/01/03 05:00:41;;;;;;;10.55;6.18;;;;;;;;;;10460034;27;20073;-62
2021/01/03 05:05:45;;;;;;;13.32;7.28;;;;;;;;;;10461255;27;20478;-62
2021/01/03 05:10:43;;;;;;;15.32;6.45;;;;;;;;;;10465778;27;20047;-62
2021/01/03 05:15:40;;;;;;;12.80;6.55;;;;;;;;;;10468701;27;20035;-61
2021/01/03 05:20:38;;;;;;;11.20;5.53;;;;;;;;;;10467695;27;20062;-62
2021/01/03 05:25:38;;;;;;;11.82;7.05;;;;;;;;;;10466779;27;20054;-62
2021/01/03 05:30:37;;;;;;;12.02;6.63;;;;;;;;;;10466089;27;20046;-63
2021/01/03 05:35:37;;;;;;;9.30;6.43;;;;;;;;;;10466644;27;20081;-62
2021/01/03 05:40:36;;;;;;;15.60;9.05;;;;;;;;;;10465727;27;20062;-61
2021/01/03 05:45:34;;;;;;;12.25;7.13;;;;;;;;;;10465558;27;20070;-63
2021/01/03 05:50:33;;;;;;;13.77;7.35;;;;;;;;;;10466783;27;20070;-62
2021/01/03 05:55:30;;;;;;;10.07;6.00;;;;;;;;;;10464633;27;20043;-63
2021/01/03 06:00:28;;;;;;;16.38;7.05;;;;;;;;;;10466971;27;20073;-62
2021/01/03 06:05:25;;;;;;;11.57;6.10;;;;;;;;;;10462633;27;20443;-62
2021/01/03 06:10:30;;;;;;;13.02;7.65;;;;;;;;;;10466808;27;20039;-62
2021/01/03 06:15:27;;;;;;;12.77;7.13;;;;;;;;;;10462346;27;20411;-63
2021/01/03 06:20:26;;;;;;;12.70;7.32;;;;;;;;;;10461545;27;20031;-61
2021/01/03 06:25:28;;;;;;;14.52;7.60;;;;;;;;;;10465289;27;20424;-61
2021/01/03 06:30:26;;;;;;;14.05;6.90;;;;;;;;;;10460823;27;20039;-61
2021/01/03 06:35:27;;;;;;;15.40;7.38;;;;;;;;;;10465522;27;20043;-61
2021/01/03 06:40:30;;;;;;;12.15;8.02;;;;;;;;;;10461873;27;20452;-62
2021/01/03 06:45:46;;;;;;;12.00;7.45;;;;;;;;;;10482610;27;20050;-61
2021/01/03 06:50:43;;;;;;;;;;;;;;;;;;10484731;27;20066;-61
2021/01/03 06:55:56;;;;;;;16.05;8.52;;;;;;;;;;10484060;27;19969;-61
2021/01/03 07:00:55;;;;;;;19.90;13.25;;;;;;;;;;10483254;27;20073;-62
2021/01/03 07:05:54;;;;;;;30.75;14.90;;;;;;;;;;10482623;27;20039;-61
2021/01/03 07:10:52;;;;;;;28.85;16.35;;;;;;;;;;10484211;27;20385;-62
2021/01/03 07:15:49;;;;;;;23.67;12.48;;;;;;;;;;10464434;27;20047;-62
2021/01/03 07:20:51;;;;;;;19.77;9.38;;;;;;;;;;10482464;27;20058;-62
2021/01/03 07:25:54;;;;;;;11.68;7.30;;;;;;;;;;10481724;27;20134;-62
2021/01/03 07:30:54;;;;;;;17.10;7.50;;;;;;;;;;10482559;27;20038;-63
2021/01/03 07:35:52;;;;;;;15.48;8.18;;;;;;;;;;10483649;27;20041;-61
2021/01/03 07:40:51;;;;;;;14.77;7.75;;;;;;;;;;10483216;27;20186;-61
2021/01/03 07:45:49;;;;;;;13.98;7.50;;;;;;;;;;10482672;27;20137;-62
2021/01/03 07:50:47;;;;;;;11.38;6.82;;;;;;;;;;10481736;27;20062;-63
2021/01/03 07:55:45;;;;;;;14.32;7.07;;;;;;;;;;10478727;27;20073;-62
2021/01/03 08:00:44;;;;;;;20.02;10.68;;;;;;;;;;10481237;27;20077;-63
2021/01/03 08:05:43;;;;;;;16.20;9.05;;;;;;;;;;10479428;27;20067;-62
2021/01/03 08:10:40;;;;;;;13.82;9.88;;;;;;;;;;10482228;27;20385;-60
2021/01/03 08:15:39;;;;;;;15.48;8.80;;;;;;;;;;10481085;27;20408;-60
2021/01/03 08:20:36;;;;;;;17.70;10.63;;;;;;;;;;10480665;27;20054;-62
2021/01/03 08:25:33;;;;;;;12.43;8.93;;;;;;;;;;10476465;27;20059;-62
2021/01/03 08:30:32;;;;;;;16.65;9.32;;;;;;;;;;10477849;27;20073;-62
2021/01/03 08:35:31;;;;;;;16.10;8.45;;;;;;;;;;10476355;27;20078;-62
2021/01/03 08:40:31;;;;;;;13.70;8.15;;;;;;;;;;10482295;27;20074;-63
2021/01/03 08:45:29;;;;;;;18.02;10.90;;;;;;;;;;10465525;27;20047;-62
2021/01/03 08:50:29;;;;;;;19.63;9.48;;;;;;;;;;10465189;27;20059;-62
2021/01/03 08:55:28;;;;;;;14.82;9.48;;;;;;;;;;10463489;27;20070;-63
2021/01/03 09:00:27;;;;;;;17.40;10.38;;;;;;;;;;10448406;27;20066;-63
2021/01/03 09:05:27;;;;;;;23.92;11.70;;;;;;;;;;10465995;27;20043;-62
2021/01/03 09:10:27;;;;;;;27.05;15.10;;;;;;;;;;10463654;27;20558;-62
2021/01/03 09:15:26;;;;;;;21.98;12.00;;;;;;;;;;10463740;27;20070;-62
2021/01/03 09:20:27;;;;;;;18.90;10.77;;;;;;;;;;10468443;27;20062;-62
2021/01/03 09:25:25;;;;;;;22.83;13.52;;;;;;;;;;10463097;27;20050;-63
2021/01/03 09:30:26;;;;;;;29.17;17.63;;;;;;;;;;10449366;27;20047;-63
2021/01/03 09:35:29;;;;;;;27.58;17.98;;;;;;;;;;10465140;27;20078;-62
2021/01/03 09:40:31;;;;;;;29.85;18.40;;;;;;;;;;10464372;27;20085;-62
2021/01/03 09:45:49;;;;;;;35.20;18.85;;;;;;;;;;10484862;27;20035;-62
2021/01/03 09:50:47;;;;;;;44.45;22.08;;;;;;;;;;10476877;27;20589;-62
2021/01/03 09:55:47;;;;;;;54.72;32.22;;;;;;;;;;10485051;27;20534;-61
2021/01/03 10:00:49;;;;;;;43.90;22.67;;;;;;;;;;10483715;27;20476;-62
2021/01/03 10:05:48;;;;;;;28.02;16.42;;;;;;;;;;10483972;27;20590;-62
2021/01/03 10:10:46;;;;;;;38.53;23.35;;;;;;;;;;10484216;27;20384;-61
2021/01/03 10:15:43;;;;;;;19.40;12.50;;;;;;;;;;10484686;27;20066;-62
2021/01/03 10:20:43;;;;;;;22.45;13.32;;;;;;;;;;10486634;27;20073;-62
2021/01/03 10:25:41;;;;;;;19.95;12.95;;;;;;;;;;10484750;27;20436;-62
2021/01/03 10:30:39;;;;;;;19.70;12.32;;;;;;;;;;10486200;27;20069;-62
2021/01/03 10:35:36;;;;;;;30.52;17.92;;;;;;;;;;10484939;27;20034;-62
2021/01/03 10:40:36;;;;;;;15.88;11.57;;;;;;;;;;10484325;27;20101;-62
2021/01/03 10:45:34;;;;;;;9.65;7.13;;;;;;;;;;10463976;27;20058;-62
2021/01/03 10:50:31;;;;;;;22.52;13.25;;;;;;;;;;10464968;27;20058;-61
2021/01/03 10:55:29;;;;;;;17.02;8.38;;;;;;;;;;10462981;27;20454;-63
2021/01/03 11:00:26;;;;;;;18.52;9.23;;;;;;;;;;10463854;27;20109;-63
2021/01/03 11:05:24;;;;;;;122.60;59.50;;;;;;;;;;10462528;27;20182;-63
2021/01/03 11:10:22;;;;;;;16.98;7.65;;;;;;;;;;10463447;27;20059;-63
2021/01/03 11:15:20;;;;;;;15.50;8.18;;;;;;;;;;10462870;27;20069;-62
2021/01/03 11:20:23;;;;;;;38.58;19.73;;;;;;;;;;10458011;27;20086;-62
2021/01/03 11:25:41;;;;;;;109.70;54.17;;;;;;;;;;10461715;27;20047;-62
2021/01/03 11:30:38;;;;;;;27.55;14.18;;;;;;;;;;10461267;27;20034;-62
2021/01/03 11:35:36;;;;;;;18.00;7.75;;;;;;;;;;10461777;27;20432;-63
2021/01/03 11:40:34;;;;;;;21.80;11.35;;;;;;;;;;10460689;27;20468;-61
2021/01/03 11:45:33;;;;;;;19.13;7.72;;;;;;;;;;10460789;27;20031;-62
2021/01/03 11:50:31;;;;;;;14.95;7.72;;;;;;;;;;10461626;27;20074;-62
2021/01/03 11:55:28;;;;;;;14.15;8.40;;;;;;;;;;10460387;27;20239;-62
2021/01/03 12:00:28;;;;;;;18.98;10.95;;;;;;;;;;10458145;27;20066;-63
2021/01/03 12:05:28;;;;;;;31.55;16.70;;;;;;;;;;10457285;27;20043;-62
2021/01/03 12:10:28;;;;;;;24.88;14.10;;;;;;;;;;10457757;27;20045;-63
2021/01/03 12:15:29;;;;;;;13.07;7.82;;;;;;;;;;10457009;27;20452;-61
2021/01/03 12:20:29;;;;;;;94.38;44.53;;;;;;;;;;10457203;27;20081;-63
2021/01/03 12:25:29;;;;;;;77.15;33.50;;;;;;;;;;10457431;27;20422;-62
2021/01/03 12:30:27;;;;;;;32.15;15.02;;;;;;;;;;10456822;27;20039;-62
2021/01/03 12:35:24;;;;;;;120.43;60.83;;;;;;;;;;10456396;27;20038;-63
2021/01/03 12:40:28;;;;;;;60.30;28.90;;;;;;;;;;10458322;27;20066;-62
2021/01/03 12:45:26;;;;;;;70.75;33.53;;;;;;;;;;10479121;27;20069;-61
2021/01/03 12:50:28;;;;;;;65.15;30.20;;;;;;;;;;10481356;27;20072;-63
2021/01/03 12:55:33;;;;;;;110.82;57.30;;;;;;;;;;10478827;27;20070;-62
2021/01/03 13:00:31;;;;;;;222.93;109.28;;;;;;;;;;10479832;27;20074;-63
2021/01/03 13:05:29;;;;;;;55.95;28.60;;;;;;;;;;10481067;27;20051;-62
2021/01/03 13:10:26;;;;;;;79.75;46.13;;;;;;;;;;10478512;27;20053;-61
2021/01/03 13:15:24;;;;;;;48.72;28.77;;;;;;;;;;10461803;27;20047;-62
2021/01/03 13:20:22;;;;;;;123.70;66.25;;;;;;;;;;10479919;27;20070;-61
2021/01/03 13:25:20;;;;;;;56.88;28.88;;;;;;;;;;10480753;27;20479;-62
2021/01/03 13:30:20;;;;;;;66.78;36.30;;;;;;;;;;10487683;27;20447;-62
2021/01/03 13:35:21;;;;;;;54.47;32.88;;;;;;;;;;10487719;27;20058;-62
2021/01/03 13:40:18;;;;;;;35.22;23.63;;;;;;;;;;10487730;27;20074;-63
2021/01/03 13:45:15;;;;;;;112.15;67.75;;;;;;;;;;10486110;27;20062;-62
2021/01/03 13:50:13;;;;;;;59.20;38.58;;;;;;;;;;10486715;27;20046;-62
2021/01/03 13:55:12;;;;;;;73.10;47.28;;;;;;;;;;10487626;27;20035;-62
2021/01/03 14:00:10;;;;;;;57.20;40.20;;;;;;;;;;10486607;27;20574;-62
2021/01/03 14:05:08;;;;;;;40.78;28.15;;;;;;;;;;10486276;27;20053;-62
2021/01/03 14:10:06;;;;;;;69.25;39.00;;;;;;;;;;10486024;27;20042;-63
2021/01/03 14:15:06;;;;;;;203.80;129.00;;;;;;;;;;10485759;27;20031;-63
2021/01/03 14:20:03;;;;;;;56.15;39.25;;;;;;;;;;10485217;27;20078;-62
2021/01/03 14:25:01;;;;;;;90.72;56.00;;;;;;;;;;10485229;27;20075;-62
2021/01/03 14:29:59;;;;;;;115.35;81.25;;;;;;;;;;10485757;27;20535;-61
2021/01/03 14:34:59;;;;;;;61.35;37.80;;;;;;;;;;10484896;27;20043;-62
2021/01/03 14:39:59;;;;;;;117.80;64.55;;;;;;;;;;10483359;27;20531;-63
2021/01/03 14:45:01;;;;;;;107.63;64.45;;;;;;;;;;10465044;27;20412;-62
2021/01/03 14:50:07;;;;;;;177.55;105.22;;;;;;;;;;10463878;27;20066;-63
2021/01/03 14:55:11;;;;;;;126.75;83.78;;;;;;;;;;10463782;27;20055;-62
2021/01/03 15:00:10;;;;;;;118.20;81.18;;;;;;;;;;10460689;27;20105;-62
2021/01/03 15:05:12;;;;;;;166.10;90.93;;;;;;;;;;10461697;27;20058;-62
2021/01/03 15:10:10;;;;;;;200.05;114.82;;;;;;;;;;10461794;27;20067;-62
2021/01/03 15:15:17;;;;;;;406.80;208.13;;;;;;;;;;10452023;27;20077;-62
2021/01/03 15:20:18;;;;;;;199.77;107.47;;;;;;;;;;10447197;27;20071;-63
2021/01/03 15:25:18;;;;;;;351.65;190.70;;;;;;;;;;10451977;27;20443;-63
2021/01/03 15:30:19;;;;;;;224.57;148.82;;;;;;;;;;10461095;27;20051;-63
2021/01/03 15:35:22;;;;;;;223.15;153.65;;;;;;;;;;10462183;27;20070;-63
2021/01/03 15:40:22;;;;;;;231.15;145.32;;;;;;;;;;10430239;27;20070;-63
2021/01/03 15:45:21;;;;;;;168.27;105.00;;;;;;;;;;10438061;27;20074;-61
2021/01/03 15:50:20;;;;;;;256.48;135.05;;;;;;;;;;10479844;27;20034;-64
2021/01/03 15:55:21;;;;;;;295.20;163.30;;;;;;;;;;10462835;27;20046;-63
2021/01/03 16:00:20;;;;;;;422.98;237.07;;;;;;;;;;10482274;27;20074;-62
2021/01/03 16:05:18;;;;;;;123.13;70.97;;;;;;;;;;10482355;27;20439;-62
2021/01/03 16:10:17;;;;;;;138.95;83.85;;;;;;;;;;10481221;27;20047;-62
2021/01/03 16:15:15;;;;;;;89.05;54.88;;;;;;;;;;10481818;27;20411;-63
2021/01/03 16:20:14;;;;;;;142.63;88.43;;;;;;;;;;10481935;27;20519;-62
2021/01/03 16:25:21;;;;;;;116.93;72.88;;;;;;;;;;10481855;27;20463;-62
2021/01/03 16:30:22;;;;;;;139.73;87.38;;;;;;;;;;10481062;27;20170;-62
2021/01/03 16:35:33;;;;;;;224.63;149.85;;;;;;;;;;10480533;27;20070;-62
2021/01/03 16:40:34;;;;;;;199.18;141.65;;;;;;;;;;10479377;27;20082;-61
2021/01/03 16:45:35;;;;;;;121.22;78.85;;;;;;;;;;10481217;27;20043;-61
2021/01/03 16:50:36;;;;;;;106.47;66.82;;;;;;;;;;10481245;27;20515;-62
2021/01/03 16:55:49;;;;;;;120.60;69.90;;;;;;;;;;10461542;27;20034;-62
2021/01/03 17:01:04;;;;;;;130.30;78.20;;;;;;;;;;10480479;27;20085;-62
2021/01/03 17:06:10;;;;;;;158.65;98.32;;;;;;;;;;10486849;27;20042;-62
2021/01/03 17:11:15;;;;;;;113.78;77.07;;;;;;;;;;10487090;27;20471;-60
2021/01/03 17:16:14;;;;;;;114.28;80.32;;;;;;;;;;10486352;27;20050;-62
2021/01/03 17:21:20;;;;;;;103.85;76.50;;;;;;;;;;10488987;27;20344;-61
2021/01/03 17:26:30;;;;;;;108.85;80.40;;;;;;;;;;10488745;27;20067;-62
2021/01/03 17:31:35;;;;;;;100.15;68.40;;;;;;;;;;10485599;27;20050;-61
2021/01/03 17:36:45;;;;;;;62.47;43.88;;;;;;;;;;10486637;27;20041;-61
2021/01/03 17:41:44;;;;;;;51.88;35.53;;;;;;;;;;10486083;27;20527;-62
2021/01/03 17:46:45;;;;;;;81.13;55.65;;;;;;;;;;10486379;27;20039;-61
2021/01/03 17:51:44;;;;;;;60.53;42.90;;;;;;;;;;10483538;27;20067;-61
2021/01/03 17:56:41;;;;;;;41.75;30.90;;;;;;;;;;10487519;27;20415;-62
2021/01/03 18:01:39;;;;;;;38.38;27.77;;;;;;;;;;10486438;27;20096;-61
2021/01/03 18:06:37;;;;;;;61.58;36.05;;;;;;;;;;10486278;27;20073;-62
2021/01/03 18:11:35;;;;;;;53.03;37.58;;;;;;;;;;10486456;27;20035;-62
2021/01/03 18:16:33;;;;;;;68.70;48.15;;;;;;;;;;10483867;27;20042;-61
2021/01/03 18:21:30;;;;;;;146.10;94.75;;;;;;;;;;10475945;27;20089;-61
2021/01/03 18:26:27;;;;;;;40.95;27.13;;;;;;;;;;10486498;27;20034;-63
2021/01/03 18:31:26;;;;;;;117.13;66.70;;;;;;;;;;10481662;27;20074;-62
2021/01/03 18:36:23;;;;;;;115.05;71.13;;;;;;;;;;10482629;27;20069;-62
2021/01/03 18:41:21;;;;;;;60.80;37.97;;;;;;;;;;10468037;27;20087;-62
2021/01/03 18:46:21;;;;;;;56.80;35.33;;;;;;;;;;10446339;27;20067;-62
2021/01/03 18:51:19;;;;;;;71.43;39.10;;;;;;;;;;10435412;27;20059;-61
2021/01/03 18:56:24;;;;;;;116.85;59.92;;;;;;;;;;10464010;27;20039;-62
2021/01/03 19:01:27;;;;;;;104.00;56.10;;;;;;;;;;10465796;27;20469;-61
2021/01/03 19:06:32;;;;;;;107.47;57.03;;;;;;;;;;10458430;27;20066;-62
2021/01/03 19:11:29;;;;;;;113.30;62.58;;;;;;;;;;10430542;27;20097;-60
2021/01/03 19:16:31;;;;;;;83.43;53.63;;;;;;;;;;10460236;27;20148;-62
2021/01/03 19:21:29;;;;;;;64.85;41.05;;;;;;;;;;10458836;27;20070;-62
2021/01/03 19:26:27;;;;;;;82.03;49.40;;;;;;;;;;10457812;27;20038;-62
2021/01/03 19:31:26;;;;;;;118.90;69.15;;;;;;;;;;10458322;27;20038;-63
2021/01/03 19:36:24;;;;;;;93.65;55.58;;;;;;;;;;10459623;27;20080;-62
2021/01/03 19:41:26;;;;;;;67.40;36.50;;;;;;;;;;10466503;27;20500;-61
2021/01/03 19:46:26;;;;;;;93.38;67.53;;;;;;;;;;10482748;27;20046;-61
2021/01/03 19:51:23;;;;;;;156.02;105.63;;;;;;;;;;10481236;27;20081;-61
2021/01/03 19:56:21;;;;;;;131.55;84.28;;;;;;;;;;10482555;27;20070;-61
2021/01/03 20:01:19;;;;;;;144.50;101.13;;;;;;;;;;10482601;27;20066;-61
2021/01/03 20:06:19;;;;;;;207.27;142.05;;;;;;;;;;10481811;27;20047;-62
2021/01/03 20:11:18;;;;;;;137.10;100.00;;;;;;;;;;10481521;27;20073;-63
2021/01/03 20:16:25;;;;;;;225.00;126.40;;;;;;;;;;10480568;27;20492;-62
2021/01/03 20:21:23;;;;;;;205.55;141.65;;;;;;;;;;10480729;27;20070;-60
2021/01/03 20:26:22;;;;;;;218.75;147.70;;;;;;;;;;10480970;27;20059;-61
2021/01/03 20:31:20;;;;;;;250.40;153.13;;;;;;;;;;10481060;27;20076;-61
2021/01/03 20:36:17;;;;;;;262.80;82.65;;;;;;;;;;10484575;27;20458;-62
2021/01/03 20:41:17;;;;;;;254.10;83.25;;;;;;;;;;10485687;27;20093;-61
2021/01/03 20:46:15;;;;;;;144.40;89.03;;;;;;;;;;10469055;27;20039;-61
2021/01/03 20:51:13;;;;;;;137.90;94.07;;;;;;;;;;10469997;27;20069;-61
2021/01/03 20:56:10;;;;;;;159.45;103.88;;;;;;;;;;10466986;27;20046;-62
2021/01/03 21:01:08;;;;;;;189.27;104.32;;;;;;;;;;10469934;27;20070;-61
2021/01/03 21:06:06;;;;;;;319.02;80.28;;;;;;;;;;10466732;27;20041;-61
2021/01/03 21:11:04;;;;;;;192.70;51.45;;;;;;;;;;10468536;27;20066;-62
2021/01/03 21:16:02;;;;;;;102.15;48.42;;;;;;;;;;10466613;27;20063;-61
2021/01/03 21:21:00;;;;;;;157.88;91.03;;;;;;;;;;10467889;27;20067;-62
2021/01/03 21:26:19;;;;;;;163.07;93.13;;;;;;;;;;10467770;27;20039;-62
2021/01/03 21:31:23;;;;;;;146.07;87.82;;;;;;;;;;10461618;27;20413;-62
2021/01/03 21:36:31;;;;;;;181.60;109.40;;;;;;;;;;10465597;27;20074;-62
2021/01/03 21:41:32;;;;;;;202.23;130.43;;;;;;;;;;10463055;27;20507;-61
2021/01/03 21:46:35;;;;;;;162.30;85.95;;;;;;;;;;10462115;27;20078;-62
2021/01/03 21:51:40;;;;;;;214.80;85.45;;;;;;;;;;10466464;27;20070;-62
2021/01/03 21:56:37;;;;;;;;;;;;;;;;;;10465885;27;20047;-62
2021/01/03 22:02:05;;;;;;;216.30;90.53;;;;;;;;;;10465825;27;19954;-62
2021/01/03 22:07:11;;;;;;;155.02;89.60;;;;;;;;;;10465284;27;20504;-62
2021/01/03 22:12:16;;;;;;;166.88;99.00;;;;;;;;;;10461207;27;20050;-62
2021/01/03 22:17:20;;;;;;;169.10;108.22;;;;;;;;;;10462551;27;20391;-63
2021/01/03 22:22:28;;;;;;;148.82;82.95;;;;;;;;;;10464841;27;20066;-62
2021/01/03 22:27:30;;;;;;;135.65;87.70;;;;;;;;;;10460341;27;20038;-62
2021/01/03 22:32:29;;;;;;;169.23;103.35;;;;;;;;;;10460802;27;20039;-62
2021/01/03 22:37:50;;;;;;;194.60;77.72;;;;;;;;;;10461120;27;20045;-62
2021/01/03 22:42:54;;;;;;;166.98;74.40;;;;;;;;;;10460466;27;20089;-62
2021/01/03 22:48:02;;;;;;;161.63;81.90;;;;;;;;;;10461541;27;20496;-62
2021/01/03 22:53:09;;;;;;;214.07;84.28;;;;;;;;;;10461748;27;20132;-62
2021/01/03 22:58:14;;;;;;;167.05;81.13;;;;;;;;;;10459458;27;20039;-62
2021/01/03 23:03:18;;;;;;;185.48;73.72;;;;;;;;;;10460093;27;20071;-62
2021/01/03 23:08:18;;;;;;;148.80;63.53;;;;;;;;;;10462266;27;20466;-62
2021/01/03 23:13:30;;;;;;;94.60;50.03;;;;;;;;;;10459074;27;20132;-62
2021/01/03 23:18:30;;;;;;;108.88;43.55;;;;;;;;;;10455290;27;20530;-63
2021/01/03 23:23:28;;;;;;;128.27;45.63;;;;;;;;;;10458526;27;20062;-62
2021/01/03 23:28:27;;;;;;;98.70;40.35;;;;;;;;;;10458335;27;20034;-63
2021/01/03 23:33:27;;;;;;;90.10;34.20;;;;;;;;;;10457160;27;20072;-62
2021/01/03 23:38:34;;;;;;;85.80;31.17;;;;;;;;;;10463104;27;20431;-61
2021/01/03 23:43:37;;;;;;;52.28;31.85;;;;;;;;;;10458590;27;20085;-61
2021/01/03 23:48:39;;;;;;;41.30;27.98;;;;;;;;;;10458608;27;20043;-61
2021/01/03 23:54:02;;;;;;;28.85;21.92;;;;;;;;;;10462159;27;20047;-61
2021/01/03 23:59:09;;;;;;;26.88;20.13;;;;;;;;;;10459978;27;20043;-61
